Impacts TAF Board INFO
FOR SITUATIONAL AWARENESS. NOT TO BE USED FOR FLIGHT PLANNING PURPOSES.
IDs:

KIAH - Houston/Bush Intl, TX, US

Issued at 0305 UTC 18 Feb 2018
Updated at 0500 UTC 18 Feb 2018
Potential Impact None Slight Moderate High
Time<<19/05Z 19/06Z 19/07Z 19/08Z 19/09Z 19/10Z 19/11Z 19/12Z 19/13Z 19/14Z 19/15Z 19/16Z 19/17Z
Type PRVL
VIS >6
CIG 12
Cover OVC
FltCat MVFR
WX --
WDir 150
WSpd 7
WGst --

Raw TAF
KIAH 180305Z 1803/1906 03005KT P6SM FEW015 BKN030 BKN250
  FM180600 03006KT P6SM SCT007 OVC015
  FM180900 06005KT 6SM BR OVC008
  FM181600 09005KT P6SM OVC015
  FM182100 15010KT P6SM BKN015 BKN040
  FM190200 15007KT P6SM SCT004 OVC012


METAR Board
Radar Display
Forecast Discussion

FOR SITUATIONAL AWARENESS. NOT TO BE USED FOR FLIGHT PLANNING PURPOSES.